sensor_id;sensor_type;location;lat;lon;timestamp;P1;durP1;ratioP1;P2;durP2;ratioP2
30068;SDS011;16894;49.456;10.644;2023-06-22T00:00:57;69.70;;;64.80;;
30068;SDS011;16894;49.456;10.644;2023-06-22T00:03:24;74.57;;;69.65;;
30068;SDS011;16894;49.456;10.644;2023-06-22T00:05:50;67.63;;;62.88;;
30068;SDS011;16894;49.456;10.644;2023-06-22T00:08:16;68.28;;;63.75;;
30068;SDS011;16894;49.456;10.644;2023-06-22T00:10:43;93.82;;;87.65;;
30068;SDS011;16894;49.456;10.644;2023-06-22T00:13:10;84.53;;;78.78;;
30068;SDS011;16894;49.456;10.644;2023-06-22T00:15:38;79.90;;;74.40;;
30068;SDS011;16894;49.456;10.644;2023-06-22T00:18:05;61.88;;;57.45;;
30068;SDS011;16894;49.456;10.644;2023-06-22T00:20:31;145.32;;;135.68;;
30068;SDS011;16894;49.456;10.644;2023-06-22T00:22:57;139.75;;;130.80;;
30068;SDS011;16894;49.456;10.644;2023-06-22T00:25:24;145.02;;;135.55;;
30068;SDS011;16894;49.456;10.644;2023-06-22T00:27:50;151.35;;;141.65;;
30068;SDS011;16894;49.456;10.644;2023-06-22T00:30:16;158.80;;;148.52;;
30068;SDS011;16894;49.456;10.644;2023-06-22T00:32:43;121.55;;;113.95;;
30068;SDS011;16894;49.456;10.644;2023-06-22T00:35:09;82.38;;;76.82;;
30068;SDS011;16894;49.456;10.644;2023-06-22T00:37:37;69.03;;;64.30;;
30068;SDS011;16894;49.456;10.644;2023-06-22T00:40:03;68.72;;;63.35;;
30068;SDS011;16894;49.456;10.644;2023-06-22T00:42:30;64.55;;;59.72;;
30068;SDS011;16894;49.456;10.644;2023-06-22T00:44:56;64.05;;;59.78;;
30068;SDS011;16894;49.456;10.644;2023-06-22T00:47:21;96.80;;;90.30;;
30068;SDS011;16894;49.456;10.644;2023-06-22T00:49:48;100.88;;;94.05;;
30068;SDS011;16894;49.456;10.644;2023-06-22T00:52:16;104.97;;;98.20;;
30068;SDS011;16894;49.456;10.644;2023-06-22T00:54:46;114.50;;;107.30;;
30068;SDS011;16894;49.456;10.644;2023-06-22T00:57:16;113.47;;;105.95;;
30068;SDS011;16894;49.456;10.644;2023-06-22T00:59:45;108.05;;;100.93;;
30068;SDS011;16894;49.456;10.644;2023-06-22T01:02:13;114.20;;;106.82;;
30068;SDS011;16894;49.456;10.644;2023-06-22T01:04:39;98.25;;;91.88;;
30068;SDS011;16894;49.456;10.644;2023-06-22T01:12:59;62.03;;;57.78;;
30068;SDS011;16894;49.456;10.644;2023-06-22T01:18:14;45.35;;;41.88;;
30068;SDS011;16894;49.456;10.644;2023-06-22T01:20:41;42.78;;;39.65;;
30068;SDS011;16894;49.456;10.644;2023-06-22T01:25:43;42.03;;;38.70;;
30068;SDS011;16894;49.456;10.644;2023-06-22T01:28:33;45.90;;;42.42;;
30068;SDS011;16894;49.456;10.644;2023-06-22T01:31:01;82.07;;;76.53;;
30068;SDS011;16894;49.456;10.644;2023-06-22T01:33:31;91.95;;;85.55;;
30068;SDS011;16894;49.456;10.644;2023-06-22T01:36:00;98.40;;;91.40;;
30068;SDS011;16894;49.456;10.644;2023-06-22T01:38:27;93.80;;;87.47;;
30068;SDS011;16894;49.456;10.644;2023-06-22T01:40:54;89.53;;;83.20;;
30068;SDS011;16894;49.456;10.644;2023-06-22T01:43:22;99.18;;;92.65;;
30068;SDS011;16894;49.456;10.644;2023-06-22T01:45:51;99.68;;;92.82;;
30068;SDS011;16894;49.456;10.644;2023-06-22T01:48:18;102.97;;;95.85;;
30068;SDS011;16894;49.456;10.644;2023-06-22T01:50:45;89.97;;;83.78;;
30068;SDS011;16894;49.456;10.644;2023-06-22T01:53:11;94.63;;;88.38;;
30068;SDS011;16894;49.456;10.644;2023-06-22T01:55:37;93.40;;;86.45;;
30068;SDS011;16894;49.456;10.644;2023-06-22T01:58:03;88.80;;;82.23;;
30068;SDS011;16894;49.456;10.644;2023-06-22T02:00:29;95.82;;;89.13;;
30068;SDS011;16894;49.456;10.644;2023-06-22T02:03:02;89.18;;;83.13;;
30068;SDS011;16894;49.456;10.644;2023-06-22T02:05:58;77.15;;;71.68;;
30068;SDS011;16894;49.456;10.644;2023-06-22T02:08:30;72.80;;;67.95;;
30068;SDS011;16894;49.456;10.644;2023-06-22T02:11:02;64.43;;;59.88;;
30068;SDS011;16894;49.456;10.644;2023-06-22T02:13:30;64.38;;;59.75;;
30068;SDS011;16894;49.456;10.644;2023-06-22T02:15:57;78.32;;;72.88;;
30068;SDS011;16894;49.456;10.644;2023-06-22T02:18:25;73.55;;;68.72;;
30068;SDS011;16894;49.456;10.644;2023-06-22T02:20:50;81.70;;;76.00;;
30068;SDS011;16894;49.456;10.644;2023-06-22T02:23:17;86.85;;;81.20;;
30068;SDS011;16894;49.456;10.644;2023-06-22T02:25:43;62.70;;;58.10;;
30068;SDS011;16894;49.456;10.644;2023-06-22T02:28:09;47.08;;;43.47;;
30068;SDS011;16894;49.456;10.644;2023-06-22T02:30:36;51.00;;;46.75;;
30068;SDS011;16894;49.456;10.644;2023-06-22T02:33:02;75.33;;;69.47;;
30068;SDS011;16894;49.456;10.644;2023-06-22T02:35:28;100.87;;;94.00;;
30068;SDS011;16894;49.456;10.644;2023-06-22T02:37:58;121.72;;;113.85;;
30068;SDS011;16894;49.456;10.644;2023-06-22T02:40:25;123.25;;;115.28;;
30068;SDS011;16894;49.456;10.644;2023-06-22T02:42:51;120.70;;;112.88;;
30068;SDS011;16894;49.456;10.644;2023-06-22T02:45:16;278.83;;;260.70;;
30068;SDS011;16894;49.456;10.644;2023-06-22T02:47:42;164.37;;;154.03;;
30068;SDS011;16894;49.456;10.644;2023-06-22T02:50:08;213.23;;;199.93;;
30068;SDS011;16894;49.456;10.644;2023-06-22T02:52:34;197.90;;;185.27;;
30068;SDS011;16894;49.456;10.644;2023-06-22T02:55:00;206.23;;;193.05;;
30068;SDS011;16894;49.456;10.644;2023-06-22T02:57:25;209.38;;;196.07;;
30068;SDS011;16894;49.456;10.644;2023-06-22T02:59:51;192.13;;;180.20;;
30068;SDS011;16894;49.456;10.644;2023-06-22T03:02:17;181.83;;;169.87;;
30068;SDS011;16894;49.456;10.644;2023-06-22T03:04:43;185.60;;;173.85;;
30068;SDS011;16894;49.456;10.644;2023-06-22T03:07:09;183.32;;;170.70;;
30068;SDS011;16894;49.456;10.644;2023-06-22T03:09:34;201.27;;;188.03;;
30068;SDS011;16894;49.456;10.644;2023-06-22T03:12:00;173.63;;;162.47;;
30068;SDS011;16894;49.456;10.644;2023-06-22T03:14:27;183.60;;;172.02;;
30068;SDS011;16894;49.456;10.644;2023-06-22T03:16:52;148.77;;;139.10;;
30068;SDS011;16894;49.456;10.644;2023-06-22T03:19:18;132.87;;;124.17;;
30068;SDS011;16894;49.456;10.644;2023-06-22T03:21:45;159.65;;;149.65;;
30068;SDS011;16894;49.456;10.644;2023-06-22T03:24:10;154.87;;;144.70;;
30068;SDS011;16894;49.456;10.644;2023-06-22T03:26:36;147.77;;;138.07;;
30068;SDS011;16894;49.456;10.644;2023-06-22T03:29:01;157.53;;;146.93;;
30068;SDS011;16894;49.456;10.644;2023-06-22T03:31:28;150.43;;;140.82;;
30068;SDS011;16894;49.456;10.644;2023-06-22T03:33:53;145.33;;;136.07;;
30068;SDS011;16894;49.456;10.644;2023-06-22T03:36:19;145.70;;;136.37;;
30068;SDS011;16894;49.456;10.644;2023-06-22T03:38:45;128.82;;;120.25;;
30068;SDS011;16894;49.456;10.644;2023-06-22T03:41:15;128.02;;;119.10;;
30068;SDS011;16894;49.456;10.644;2023-06-22T03:43:41;150.13;;;140.35;;
30068;SDS011;16894;49.456;10.644;2023-06-22T03:46:07;130.73;;;122.15;;
30068;SDS011;16894;49.456;10.644;2023-06-22T03:48:32;134.37;;;125.73;;
30068;SDS011;16894;49.456;10.644;2023-06-22T03:51:01;128.93;;;120.30;;
30068;SDS011;16894;49.456;10.644;2023-06-22T03:53:28;145.57;;;136.07;;
30068;SDS011;16894;49.456;10.644;2023-06-22T03:55:54;127.22;;;118.85;;
30068;SDS011;16894;49.456;10.644;2023-06-22T03:58:20;135.90;;;127.03;;
30068;SDS011;16894;49.456;10.644;2023-06-22T04:00:49;130.80;;;121.45;;
30068;SDS011;16894;49.456;10.644;2023-06-22T04:03:16;129.43;;;120.65;;
30068;SDS011;16894;49.456;10.644;2023-06-22T04:05:43;157.88;;;147.55;;
30068;SDS011;16894;49.456;10.644;2023-06-22T04:08:09;153.43;;;143.13;;
30068;SDS011;16894;49.456;10.644;2023-06-22T04:10:35;131.70;;;123.00;;
30068;SDS011;16894;49.456;10.644;2023-06-22T04:13:01;128.88;;;120.35;;
30068;SDS011;16894;49.456;10.644;2023-06-22T04:15:27;165.52;;;154.85;;
30068;SDS011;16894;49.456;10.644;2023-06-22T04:17:54;129.32;;;120.30;;
30068;SDS011;16894;49.456;10.644;2023-06-22T04:20:21;133.50;;;124.63;;
30068;SDS011;16894;49.456;10.644;2023-06-22T04:22:47;139.18;;;129.88;;
30068;SDS011;16894;49.456;10.644;2023-06-22T04:25:12;138.60;;;129.50;;
30068;SDS011;16894;49.456;10.644;2023-06-22T04:27:38;134.77;;;126.10;;
30068;SDS011;16894;49.456;10.644;2023-06-22T04:30:06;154.70;;;144.60;;
30068;SDS011;16894;49.456;10.644;2023-06-22T04:32:33;174.98;;;163.13;;
30068;SDS011;16894;49.456;10.644;2023-06-22T04:35:01;134.80;;;125.93;;
30068;SDS011;16894;49.456;10.644;2023-06-22T04:37:27;139.45;;;130.52;;
30068;SDS011;16894;49.456;10.644;2023-06-22T04:39:53;146.05;;;136.43;;
30068;SDS011;16894;49.456;10.644;2023-06-22T04:42:19;128.00;;;119.63;;
30068;SDS011;16894;49.456;10.644;2023-06-22T04:44:45;132.90;;;123.30;;
30068;SDS011;16894;49.456;10.644;2023-06-22T04:47:10;135.73;;;126.50;;
30068;SDS011;16894;49.456;10.644;2023-06-22T04:49:36;220.68;;;206.30;;
30068;SDS011;16894;49.456;10.644;2023-06-22T04:52:05;168.07;;;157.07;;
30068;SDS011;16894;49.456;10.644;2023-06-22T04:54:32;134.18;;;125.47;;
30068;SDS011;16894;49.456;10.644;2023-06-22T04:57:03;144.20;;;134.05;;
30068;SDS011;16894;49.456;10.644;2023-06-22T04:59:35;142.02;;;132.52;;
30068;SDS011;16894;49.456;10.644;2023-06-22T05:02:04;143.10;;;133.73;;
30068;SDS011;16894;49.456;10.644;2023-06-22T05:04:31;144.75;;;135.48;;
30068;SDS011;16894;49.456;10.644;2023-06-22T05:06:57;130.95;;;122.22;;
30068;SDS011;16894;49.456;10.644;2023-06-22T05:09:23;158.88;;;148.48;;
30068;SDS011;16894;49.456;10.644;2023-06-22T05:11:52;148.82;;;138.65;;
30068;SDS011;16894;49.456;10.644;2023-06-22T05:14:18;142.65;;;133.13;;
30068;SDS011;16894;49.456;10.644;2023-06-22T05:16:44;137.88;;;128.77;;
30068;SDS011;16894;49.456;10.644;2023-06-22T05:19:10;155.38;;;145.43;;
30068;SDS011;16894;49.456;10.644;2023-06-22T05:21:37;176.27;;;164.88;;
30068;SDS011;16894;49.456;10.644;2023-06-22T05:24:03;151.27;;;141.20;;
30068;SDS011;16894;49.456;10.644;2023-06-22T05:26:29;150.02;;;140.18;;
30068;SDS011;16894;49.456;10.644;2023-06-22T05:28:56;138.38;;;129.20;;
30068;SDS011;16894;49.456;10.644;2023-06-22T05:31:22;128.18;;;119.55;;
30068;SDS011;16894;49.456;10.644;2023-06-22T05:33:49;119.95;;;111.88;;
30068;SDS011;16894;49.456;10.644;2023-06-22T05:36:17;108.45;;;101.15;;
30068;SDS011;16894;49.456;10.644;2023-06-22T05:38:44;100.70;;;93.78;;
30068;SDS011;16894;49.456;10.644;2023-06-22T05:41:11;94.93;;;88.50;;
30068;SDS011;16894;49.456;10.644;2023-06-22T05:43:36;80.00;;;74.43;;
30068;SDS011;16894;49.456;10.644;2023-06-22T05:46:03;61.53;;;56.88;;
30068;SDS011;16894;49.456;10.644;2023-06-22T05:48:29;53.85;;;49.95;;
30068;SDS011;16894;49.456;10.644;2023-06-22T05:50:55;41.17;;;37.90;;
30068;SDS011;16894;49.456;10.644;2023-06-22T05:53:20;40.10;;;35.97;;
30068;SDS011;16894;49.456;10.644;2023-06-22T05:55:46;38.63;;;35.15;;
30068;SDS011;16894;49.456;10.644;2023-06-22T05:58:12;36.97;;;34.00;;
30068;SDS011;16894;49.456;10.644;2023-06-22T06:00:38;48.88;;;44.97;;
30068;SDS011;16894;49.456;10.644;2023-06-22T06:03:05;47.67;;;44.03;;
30068;SDS011;16894;49.456;10.644;2023-06-22T06:05:35;80.50;;;74.85;;
30068;SDS011;16894;49.456;10.644;2023-06-22T06:08:01;61.42;;;56.92;;
30068;SDS011;16894;49.456;10.644;2023-06-22T06:10:30;114.38;;;107.07;;
30068;SDS011;16894;49.456;10.644;2023-06-22T06:12:57;93.38;;;87.18;;
30068;SDS011;16894;49.456;10.644;2023-06-22T06:15:22;102.57;;;95.90;;
30068;SDS011;16894;49.456;10.644;2023-06-22T06:17:48;145.00;;;135.68;;
30068;SDS011;16894;49.456;10.644;2023-06-22T06:20:19;134.00;;;124.82;;
30068;SDS011;16894;49.456;10.644;2023-06-22T06:22:46;112.53;;;105.15;;
30068;SDS011;16894;49.456;10.644;2023-06-22T06:25:13;109.68;;;102.05;;
30068;SDS011;16894;49.456;10.644;2023-06-22T06:27:44;72.53;;;67.57;;
30068;SDS011;16894;49.456;10.644;2023-06-22T06:30:12;51.25;;;47.72;;
30068;SDS011;16894;49.456;10.644;2023-06-22T06:32:39;57.10;;;51.78;;
30068;SDS011;16894;49.456;10.644;2023-06-22T06:35:07;33.05;;;30.55;;
30068;SDS011;16894;49.456;10.644;2023-06-22T06:37:39;39.13;;;35.70;;
30068;SDS011;16894;49.456;10.644;2023-06-22T06:40:06;28.17;;;26.02;;
30068;SDS011;16894;49.456;10.644;2023-06-22T06:42:42;29.85;;;27.60;;
30068;SDS011;16894;49.456;10.644;2023-06-22T06:45:20;36.90;;;33.78;;
30068;SDS011;16894;49.456;10.644;2023-06-22T06:47:47;24.70;;;22.80;;
30068;SDS011;16894;49.456;10.644;2023-06-22T06:50:14;46.47;;;42.78;;
30068;SDS011;16894;49.456;10.644;2023-06-22T06:52:40;31.08;;;28.92;;
30068;SDS011;16894;49.456;10.644;2023-06-22T06:55:06;48.47;;;44.67;;
30068;SDS011;16894;49.456;10.644;2023-06-22T06:57:34;54.60;;;50.95;;
30068;SDS011;16894;49.456;10.644;2023-06-22T07:00:02;81.82;;;75.80;;
30068;SDS011;16894;49.456;10.644;2023-06-22T07:02:33;66.50;;;61.70;;
30068;SDS011;16894;49.456;10.644;2023-06-22T07:04:59;56.92;;;53.13;;
30068;SDS011;16894;49.456;10.644;2023-06-22T07:07:25;51.97;;;48.10;;
30068;SDS011;16894;49.456;10.644;2023-06-22T07:09:50;102.75;;;93.13;;
30068;SDS011;16894;49.456;10.644;2023-06-22T07:12:16;84.22;;;78.68;;
30068;SDS011;16894;49.456;10.644;2023-06-22T07:14:41;106.13;;;99.40;;
30068;SDS011;16894;49.456;10.644;2023-06-22T07:17:07;97.72;;;91.38;;
30068;SDS011;16894;49.456;10.644;2023-06-22T07:19:33;144.45;;;135.30;;
30068;SDS011;16894;49.456;10.644;2023-06-22T07:21:58;171.00;;;159.85;;
30068;SDS011;16894;49.456;10.644;2023-06-22T07:24:24;220.90;;;207.07;;
30068;SDS011;16894;49.456;10.644;2023-06-22T07:26:50;257.30;;;240.23;;
30068;SDS011;16894;49.456;10.644;2023-06-22T07:29:17;345.30;;;322.52;;
30068;SDS011;16894;49.456;10.644;2023-06-22T07:34:08;864.15;;;793.05;;
30068;SDS011;16894;49.456;10.644;2023-06-22T07:36:34;935.30;;;855.85;;
30068;SDS011;16894;49.456;10.644;2023-06-22T07:39:01;950.70;;;870.33;;
30068;SDS011;16894;49.456;10.644;2023-06-22T07:41:30;1132.05;;;999.90;;
30068;SDS011;16894;49.456;10.644;2023-06-22T07:43:55;1129.75;;;999.90;;
30068;SDS011;16894;49.456;10.644;2023-06-22T07:46:21;1140.63;;;999.90;;
30068;SDS011;16894;49.456;10.644;2023-06-22T07:51:13;1199.40;;;999.90;;
30068;SDS011;16894;49.456;10.644;2023-06-22T07:53:40;1239.30;;;999.90;;
30068;SDS011;16894;49.456;10.644;2023-06-22T07:56:07;1410.15;;;999.90;;
30068;SDS011;16894;49.456;10.644;2023-06-22T07:58:35;1420.07;;;999.90;;
30068;SDS011;16894;49.456;10.644;2023-06-22T08:01:01;1481.13;;;999.90;;
30068;SDS011;16894;49.456;10.644;2023-06-22T08:03:28;1508.72;;;999.90;;
30068;SDS011;16894;49.456;10.644;2023-06-22T08:05:53;1498.32;;;999.90;;
30068;SDS011;16894;49.456;10.644;2023-06-22T08:10:45;1499.65;;;999.90;;
30068;SDS011;16894;49.456;10.644;2023-06-22T08:13:11;1424.55;;;999.90;;
30068;SDS011;16894;49.456;10.644;2023-06-22T08:15:36;1410.28;;;999.90;;
30068;SDS011;16894;49.456;10.644;2023-06-22T08:18:02;1445.00;;;999.90;;
30068;SDS011;16894;49.456;10.644;2023-06-22T08:20:28;1520.43;;;999.90;;
30068;SDS011;16894;49.456;10.644;2023-06-22T08:22:55;1564.32;;;999.90;;
30068;SDS011;16894;49.456;10.644;2023-06-22T08:25:23;1851.00;;;999.90;;
30068;SDS011;16894;49.456;10.644;2023-06-22T08:27:48;1998.63;;;999.90;;
30068;SDS011;16894;49.456;10.644;2023-06-22T08:30:15;1999.90;;;999.90;;
30068;SDS011;16894;49.456;10.644;2023-06-22T08:32:43;1958.95;;;999.90;;
30068;SDS011;16894;49.456;10.644;2023-06-22T08:35:09;1166.55;;;839.30;;
30068;SDS011;16894;49.456;10.644;2023-06-22T08:40:01;1999.90;;;999.90;;
30068;SDS011;16894;49.456;10.644;2023-06-22T08:42:35;1999.90;;;999.90;;
30068;SDS011;16894;49.456;10.644;2023-06-22T08:45:01;1999.90;;;999.90;;
30068;SDS011;16894;49.456;10.644;2023-06-22T08:49:53;1999.90;;;999.90;;
30068;SDS011;16894;49.456;10.644;2023-06-22T08:52:19;1999.90;;;999.90;;
30068;SDS011;16894;49.456;10.644;2023-06-22T08:54:46;1999.90;;;999.90;;
30068;SDS011;16894;49.456;10.644;2023-06-22T08:57:12;1999.90;;;999.90;;
30068;SDS011;16894;49.456;10.644;2023-06-22T09:02:03;1999.90;;;999.90;;
30068;SDS011;16894;49.456;10.644;2023-06-22T09:04:29;1999.90;;;999.90;;
30068;SDS011;16894;49.456;10.644;2023-06-22T09:06:57;1999.90;;;999.90;;
30068;SDS011;16894;49.456;10.644;2023-06-22T09:09:23;1999.90;;;999.90;;
30068;SDS011;16894;49.456;10.644;2023-06-22T09:11:48;1999.90;;;999.90;;
30068;SDS011;16894;49.456;10.644;2023-06-22T09:14:14;1999.90;;;999.90;;
30068;SDS011;16894;49.456;10.644;2023-06-22T09:16:40;1999.90;;;999.90;;
30068;SDS011;16894;49.456;10.644;2023-06-22T09:19:05;1999.90;;;999.90;;
30068;SDS011;16894;49.456;10.644;2023-06-22T09:21:31;1999.90;;;999.90;;
30068;SDS011;16894;49.456;10.644;2023-06-22T09:23:57;1999.90;;;999.90;;
30068;SDS011;16894;49.456;10.644;2023-06-22T09:26:23;1999.90;;;999.90;;
30068;SDS011;16894;49.456;10.644;2023-06-22T09:28:49;1999.90;;;999.90;;
30068;SDS011;16894;49.456;10.644;2023-06-22T09:31:15;1999.90;;;999.90;;
30068;SDS011;16894;49.456;10.644;2023-06-22T09:33:41;1999.90;;;999.90;;
30068;SDS011;16894;49.456;10.644;2023-06-22T09:36:07;1999.90;;;999.90;;
30068;SDS011;16894;49.456;10.644;2023-06-22T09:38:37;1999.90;;;999.90;;
30068;SDS011;16894;49.456;10.644;2023-06-22T09:41:03;1999.90;;;999.90;;
30068;SDS011;16894;49.456;10.644;2023-06-22T09:43:29;1999.90;;;999.90;;
30068;SDS011;16894;49.456;10.644;2023-06-22T09:45:56;1999.90;;;999.90;;
30068;SDS011;16894;49.456;10.644;2023-06-22T09:48:22;1999.90;;;999.90;;
30068;SDS011;16894;49.456;10.644;2023-06-22T09:50:47;1999.90;;;999.90;;
30068;SDS011;16894;49.456;10.644;2023-06-22T09:53:13;1999.90;;;999.90;;
30068;SDS011;16894;49.456;10.644;2023-06-22T09:55:39;1999.90;;;999.90;;
30068;SDS011;16894;49.456;10.644;2023-06-22T09:58:04;1999.90;;;999.90;;
30068;SDS011;16894;49.456;10.644;2023-06-22T10:00:30;1999.90;;;999.90;;
30068;SDS011;16894;49.456;10.644;2023-06-22T10:02:55;1999.90;;;999.90;;
30068;SDS011;16894;49.456;10.644;2023-06-22T10:05:22;1999.90;;;999.90;;
30068;SDS011;16894;49.456;10.644;2023-06-22T10:07:49;1999.90;;;999.90;;
30068;SDS011;16894;49.456;10.644;2023-06-22T10:10:15;1999.90;;;999.90;;
30068;SDS011;16894;49.456;10.644;2023-06-22T10:12:45;1999.90;;;999.90;;
30068;SDS011;16894;49.456;10.644;2023-06-22T10:15:12;1999.90;;;999.90;;
30068;SDS011;16894;49.456;10.644;2023-06-22T10:17:39;1999.90;;;999.90;;
30068;SDS011;16894;49.456;10.644;2023-06-22T10:20:05;1999.90;;;999.90;;
30068;SDS011;16894;49.456;10.644;2023-06-22T10:22:36;1999.90;;;999.90;;
30068;SDS011;16894;49.456;10.644;2023-06-22T10:25:06;1999.90;;;999.90;;
30068;SDS011;16894;49.456;10.644;2023-06-22T10:27:32;1999.90;;;999.90;;
30068;SDS011;16894;49.456;10.644;2023-06-22T10:29:57;1732.55;;;962.25;;
30068;SDS011;16894;49.456;10.644;2023-06-22T10:32:23;1732.55;;;962.47;;
30068;SDS011;16894;49.456;10.644;2023-06-22T10:34:49;1999.90;;;999.90;;
30068;SDS011;16894;49.456;10.644;2023-06-22T10:37:14;1999.90;;;999.90;;
30068;SDS011;16894;49.456;10.644;2023-06-22T10:39:40;1999.90;;;999.90;;
30068;SDS011;16894;49.456;10.644;2023-06-22T10:42:07;1999.90;;;999.90;;
30068;SDS011;16894;49.456;10.644;2023-06-22T10:44:33;1999.90;;;999.90;;
30068;SDS011;16894;49.456;10.644;2023-06-22T10:46:58;1999.90;;;999.90;;
30068;SDS011;16894;49.456;10.644;2023-06-22T10:49:24;1999.90;;;999.90;;
30068;SDS011;16894;49.456;10.644;2023-06-22T10:51:50;1999.90;;;999.90;;
30068;SDS011;16894;49.456;10.644;2023-06-22T10:54:15;1999.90;;;999.90;;
30068;SDS011;16894;49.456;10.644;2023-06-22T10:56:43;1999.90;;;999.90;;
30068;SDS011;16894;49.456;10.644;2023-06-22T10:59:09;1999.90;;;999.90;;
30068;SDS011;16894;49.456;10.644;2023-06-22T11:01:34;1999.90;;;999.90;;
30068;SDS011;16894;49.456;10.644;2023-06-22T11:04:00;1999.90;;;999.90;;
30068;SDS011;16894;49.456;10.644;2023-06-22T11:06:26;1711.53;;;944.05;;
30068;SDS011;16894;49.456;10.644;2023-06-22T11:08:52;1999.90;;;999.90;;
30068;SDS011;16894;49.456;10.644;2023-06-22T11:11:17;1999.90;;;999.90;;
30068;SDS011;16894;49.456;10.644;2023-06-22T11:13:43;1999.90;;;999.90;;
30068;SDS011;16894;49.456;10.644;2023-06-22T11:16:10;1999.90;;;999.90;;
30068;SDS011;16894;49.456;10.644;2023-06-22T11:18:36;1999.90;;;999.90;;
30068;SDS011;16894;49.456;10.644;2023-06-22T11:21:02;1999.90;;;999.90;;
30068;SDS011;16894;49.456;10.644;2023-06-22T11:23:28;1999.90;;;999.90;;
30068;SDS011;16894;49.456;10.644;2023-06-22T11:25:54;331.80;;;311.60;;
30068;SDS011;16894;49.456;10.644;2023-06-22T11:28:20;366.02;;;343.67;;
30068;SDS011;16894;49.456;10.644;2023-06-22T11:30:45;340.55;;;319.42;;
30068;SDS011;16894;49.456;10.644;2023-06-22T11:33:11;369.95;;;347.13;;
30068;SDS011;16894;49.456;10.644;2023-06-22T11:35:37;360.13;;;338.20;;
30068;SDS011;16894;49.456;10.644;2023-06-22T11:38:02;327.10;;;306.80;;
30068;SDS011;16894;49.456;10.644;2023-06-22T11:40:29;390.33;;;366.27;;
30068;SDS011;16894;49.456;10.644;2023-06-22T11:42:55;346.48;;;325.05;;
30068;SDS011;16894;49.456;10.644;2023-06-22T11:45:21;330.55;;;309.95;;
30068;SDS011;16894;49.456;10.644;2023-06-22T11:47:47;386.33;;;362.38;;
30068;SDS011;16894;49.456;10.644;2023-06-22T11:50:13;362.20;;;339.75;;
30068;SDS011;16894;49.456;10.644;2023-06-22T11:52:38;355.65;;;332.92;;
30068;SDS011;16894;49.456;10.644;2023-06-22T11:55:04;1999.90;;;999.90;;
30068;SDS011;16894;49.456;10.644;2023-06-22T11:57:35;263.95;;;248.07;;
30068;SDS011;16894;49.456;10.644;2023-06-22T12:00:02;1999.90;;;999.90;;
30068;SDS011;16894;49.456;10.644;2023-06-22T12:02:42;1999.90;;;999.90;;
30068;SDS011;16894;49.456;10.644;2023-06-22T12:05:10;1999.90;;;999.90;;
30068;SDS011;16894;49.456;10.644;2023-06-22T12:07:36;1999.90;;;999.90;;
30068;SDS011;16894;49.456;10.644;2023-06-22T12:10:02;1999.90;;;999.90;;
30068;SDS011;16894;49.456;10.644;2023-06-22T12:12:28;1999.90;;;999.90;;
30068;SDS011;16894;49.456;10.644;2023-06-22T12:14:54;1563.00;;;809.03;;
30068;SDS011;16894;49.456;10.644;2023-06-22T12:17:20;251.70;;;236.35;;
30068;SDS011;16894;49.456;10.644;2023-06-22T12:19:46;370.60;;;347.90;;
30068;SDS011;16894;49.456;10.644;2023-06-22T12:22:12;378.00;;;354.95;;
30068;SDS011;16894;49.456;10.644;2023-06-22T12:24:37;377.67;;;354.70;;
30068;SDS011;16894;49.456;10.644;2023-06-22T12:27:03;399.58;;;374.73;;
30068;SDS011;16894;49.456;10.644;2023-06-22T12:29:29;306.77;;;288.00;;
30068;SDS011;16894;49.456;10.644;2023-06-22T12:31:55;204.63;;;191.57;;
30068;SDS011;16894;49.456;10.644;2023-06-22T12:34:20;170.93;;;159.77;;
30068;SDS011;16894;49.456;10.644;2023-06-22T12:36:46;246.55;;;231.32;;
30068;SDS011;16894;49.456;10.644;2023-06-22T12:39:14;247.38;;;231.90;;
30068;SDS011;16894;49.456;10.644;2023-06-22T12:41:40;257.25;;;241.30;;
30068;SDS011;16894;49.456;10.644;2023-06-22T12:44:06;303.08;;;283.95;;
30068;SDS011;16894;49.456;10.644;2023-06-22T12:46:31;305.23;;;285.67;;
30068;SDS011;16894;49.456;10.644;2023-06-22T12:49:02;397.40;;;371.98;;
30068;SDS011;16894;49.456;10.644;2023-06-22T12:51:29;336.10;;;315.30;;
30068;SDS011;16894;49.456;10.644;2023-06-22T12:53:55;390.77;;;366.33;;
30068;SDS011;16894;49.456;10.644;2023-06-22T12:56:21;392.83;;;368.15;;
30068;SDS011;16894;49.456;10.644;2023-06-22T12:58:46;375.77;;;352.02;;
30068;SDS011;16894;49.456;10.644;2023-06-22T13:01:12;367.83;;;344.45;;
30068;SDS011;16894;49.456;10.644;2023-06-22T13:03:38;332.33;;;311.77;;
30068;SDS011;16894;49.456;10.644;2023-06-22T13:06:03;335.80;;;315.02;;
30068;SDS011;16894;49.456;10.644;2023-06-22T13:08:29;396.85;;;372.00;;
30068;SDS011;16894;49.456;10.644;2023-06-22T13:10:55;393.33;;;368.80;;
30068;SDS011;16894;49.456;10.644;2023-06-22T13:13:24;383.88;;;360.20;;
30068;SDS011;16894;49.456;10.644;2023-06-22T13:15:52;328.70;;;308.17;;
30068;SDS011;16894;49.456;10.644;2023-06-22T13:18:19;348.50;;;327.05;;
30068;SDS011;16894;49.456;10.644;2023-06-22T13:20:44;399.58;;;374.40;;
30068;SDS011;16894;49.456;10.644;2023-06-22T13:23:10;353.15;;;330.65;;
30068;SDS011;16894;49.456;10.644;2023-06-22T13:25:36;318.35;;;298.45;;
30068;SDS011;16894;49.456;10.644;2023-06-22T13:28:02;301.20;;;282.60;;
30068;SDS011;16894;49.456;10.644;2023-06-22T13:30:28;311.08;;;291.83;;
30068;SDS011;16894;49.456;10.644;2023-06-22T13:32:53;275.73;;;258.88;;
30068;SDS011;16894;49.456;10.644;2023-06-22T13:35:19;221.65;;;208.13;;
30068;SDS011;16894;49.456;10.644;2023-06-22T13:37:44;1075.05;;;570.38;;
30068;SDS011;16894;49.456;10.644;2023-06-22T13:40:10;1999.90;;;999.90;;
30068;SDS011;16894;49.456;10.644;2023-06-22T13:42:36;1999.90;;;999.90;;
30068;SDS011;16894;49.456;10.644;2023-06-22T13:45:02;1999.90;;;999.90;;
30068;SDS011;16894;49.456;10.644;2023-06-22T13:47:28;1999.90;;;999.90;;
30068;SDS011;16894;49.456;10.644;2023-06-22T13:49:55;1999.90;;;999.90;;
30068;SDS011;16894;49.456;10.644;2023-06-22T13:52:20;1999.90;;;999.90;;
30068;SDS011;16894;49.456;10.644;2023-06-22T13:54:46;1999.90;;;999.90;;
30068;SDS011;16894;49.456;10.644;2023-06-22T13:57:12;1999.90;;;999.90;;
30068;SDS011;16894;49.456;10.644;2023-06-22T13:59:37;282.50;;;265.38;;
30068;SDS011;16894;49.456;10.644;2023-06-22T14:02:03;274.10;;;257.58;;
30068;SDS011;16894;49.456;10.644;2023-06-22T14:04:29;248.90;;;233.93;;
30068;SDS011;16894;49.456;10.644;2023-06-22T14:06:55;1999.90;;;999.90;;
30068;SDS011;16894;49.456;10.644;2023-06-22T14:09:21;1092.60;;;586.83;;